Time;durP1;ratioP1;P1;durP2;ratioP2;P2;SDS_P1;SDS_P2;PMS_P1;PMS_P2;Temp;Humidity;BMP_temperature;BMP_pressure;BME280_temperature;BME280_humidity;BME280_pressure;Samples;Min_cycle;Max_cycle;Signal;HPM_P1;HPM_P2
2023/03/21 07:09:50;;;;;;;11.10;3.33;;;;;;;10.37;67.58;96627.63;2086521;27;21065;-59
2023/03/21 07:10:55;;;;;;;8.13;3.25;;;;;;;10.74;66.95;96657.31;2077302;28;20288;-59
2023/03/21 07:11:57;;;;;;;9.73;2.60;;;;;;;10.77;66.74;96663.25;2073479;28;20228;-59
2023/03/21 07:12:59;;;;;;;7.65;3.10;;;;;;;11.05;66.40;96662.00;2083457;28;20228;-60
2023/03/21 07:14:00;;;;;;;4.65;2.40;;;;;;;11.25;64.51;96665.47;2080853;28;20196;-60
2023/03/21 07:15:03;;;;;;;6.13;2.65;;;;;;;11.46;64.20;96660.97;2078523;28;20779;-60
2023/03/21 07:16:05;;;;;;;4.88;2.40;;;;;;;11.47;63.80;96667.91;2080481;28;20201;-60
2023/03/21 07:17:06;;;;;;;5.50;2.60;;;;;;;10.89;64.55;96664.50;2077723;28;20575;-60
2023/03/21 07:18:09;;;;;;;4.60;2.40;;;;;;;11.48;63.53;96660.88;2078738;28;20198;-59
2023/03/21 07:19:10;;;;;;;4.53;2.10;;;;;;;11.73;62.69;96666.63;2076858;28;20716;-60
2023/03/21 07:20:12;;;;;;;3.05;2.00;;;;;;;11.62;62.85;96671.53;2078893;28;20202;-60
2023/03/21 07:21:14;;;;;;;2.72;1.65;;;;;;;11.79;62.08;96659.41;2076315;28;20672;-60
2023/03/21 07:22:16;;;;;;;3.50;2.10;;;;;;;11.79;62.34;96680.34;2078044;28;20671;-59
2023/03/21 07:23:19;;;;;;;3.97;2.28;;;;;;;11.70;61.78;96671.16;2079280;28;20637;-59
2023/03/21 07:24:20;;;;;;;7.22;2.70;;;;;;;11.56;62.31;96672.66;2080597;28;20218;-59
2023/03/21 07:25:22;;;;;;;9.93;1.95;;;;;;;11.63;62.48;96673.25;2078182;28;20238;-60
2023/03/21 07:26:23;;;;;;;4.15;2.00;;;;;;;12.28;60.94;96674.44;2078863;28;20615;-60
2023/03/21 07:27:25;;;;;;;8.63;2.17;;;;;;;12.03;61.20;96670.47;2077863;28;20229;-60
2023/03/21 07:28:27;;;;;;;4.50;2.75;;;;;;;12.02;61.44;96677.44;2078122;28;20251;-60
2023/03/21 07:29:28;;;;;;;6.25;2.88;;;;;;;12.21;61.14;96669.53;2078975;28;20317;-60
2023/03/21 07:30:30;;;;;;;2.80;1.73;;;;;;;12.64;60.01;96671.69;2079727;28;20850;-60
2023/03/21 07:31:31;;;;;;;8.70;2.30;;;;;;;12.92;59.68;96664.97;2078775;28;20198;-60
2023/03/21 07:32:34;;;;;;;6.15;2.20;;;;;;;12.60;59.04;96661.47;2076901;28;20198;-60
2023/03/21 07:33:35;;;;;;;4.57;2.97;;;;;;;12.39;59.72;96661.66;2079295;28;20206;-61
2023/03/21 07:34:37;;;;;;;13.07;4.80;;;;;;;12.47;59.28;96669.09;2080553;28;20684;-60
2023/03/21 07:35:38;;;;;;;2.33;1.58;;;;;;;12.84;59.15;96664.56;2081757;28;20618;-60
2023/03/21 07:36:40;;;;;;;6.25;4.15;;;;;;;13.44;58.17;96668.34;2083384;28;20274;-60
2023/03/21 07:37:42;;;;;;;3.97;2.30;;;;;;;13.05;58.08;96666.03;2080217;28;20238;-60
2023/03/21 07:38:44;;;;;;;10.45;2.05;;;;;;;13.41;57.30;96665.88;2080127;28;20202;-60
2023/03/21 07:39:46;;;;;;;4.43;2.03;;;;;;;13.50;57.63;96666.22;2078116;28;20233;-60
2023/03/21 07:40:48;;;;;;;4.72;2.17;;;;;;;13.45;57.48;96668.25;2077958;28;20197;-60
2023/03/21 07:41:49;;;;;;;5.35;2.10;;;;;;;13.68;56.69;96663.50;2079953;28;20207;-60
2023/03/21 07:42:51;;;;;;;6.15;1.75;;;;;;;13.88;56.13;96652.69;2081595;28;20200;-60
2023/03/21 07:43:52;;;;;;;1.90;1.20;;;;;;;13.94;55.54;96664.63;2079989;28;20229;-60
2023/03/21 07:44:53;;;;;;;5.53;1.85;;;;;;;14.20;54.95;96654.38;2078671;28;20546;-60
2023/03/21 07:45:56;;;;;;;4.13;1.90;;;;;;;14.05;55.23;96658.75;2077969;28;20197;-60
2023/03/21 07:46:58;;;;;;;4.43;1.45;;;;;;;14.79;53.64;96656.13;2079479;28;20706;-60
2023/03/21 07:48:00;;;;;;;4.80;2.10;;;;;;;14.40;54.42;96657.59;2081784;28;20201;-60
2023/03/21 07:49:02;;;;;;;3.10;1.60;;;;;;;14.27;54.71;96660.09;2077016;28;20198;-60
2023/03/21 07:50:03;;;;;;;4.00;1.90;;;;;;;14.16;55.25;96668.63;2078568;28;20213;-60
2023/03/21 07:51:05;;;;;;;5.10;2.13;;;;;;;13.76;56.00;96660.44;2078104;28;20212;-60
2023/03/21 07:52:07;;;;;;;2.67;1.48;;;;;;;13.70;56.02;96667.72;2075986;28;20230;-60
2023/03/21 07:53:08;;;;;;;3.60;1.95;;;;;;;14.10;55.68;96661.94;2080772;28;20212;-60
2023/03/21 07:54:10;;;;;;;3.38;1.70;;;;;;;14.09;54.84;96669.91;2077109;28;20232;-60
2023/03/21 07:55:11;;;;;;;3.60;1.77;;;;;;;14.37;54.65;96669.97;2073355;28;20708;-60
2023/03/21 07:56:14;;;;;;;5.68;1.83;;;;;;;14.26;54.83;96656.63;2078211;28;20521;-60
2023/03/21 07:57:16;;;;;;;6.00;2.10;;;;;;;13.53;56.19;96666.06;2079125;28;20692;-60
2023/03/21 07:58:18;;;;;;;6.30;1.88;;;;;;;13.35;56.48;96661.81;2078798;28;20217;-60
2023/03/21 07:59:19;;;;;;;4.85;1.70;;;;;;;12.86;57.49;96652.22;2077794;28;20202;-60
2023/03/21 08:00:24;;;;;;;3.85;1.92;;;;;;;12.63;59.47;96664.75;2076898;28;20256;-59
2023/03/21 08:01:25;;;;;;;3.10;1.55;;;;;;;12.42;59.55;96666.75;2075320;28;20210;-59
2023/03/21 08:02:27;;;;;;;4.72;2.10;;;;;;;12.67;59.13;96665.44;2074957;28;20194;-60
2023/03/21 08:03:31;;;;;;;7.43;2.08;;;;;;;12.40;59.65;96669.44;2074733;28;20305;-59
2023/03/21 08:04:33;;;;;;;11.50;2.13;;;;;;;12.22;59.95;96676.44;2071939;28;20221;-59
2023/03/21 08:05:39;;;;;;;3.13;1.92;;;;;;;13.04;58.41;96673.97;2078743;28;20623;-59
2023/03/21 08:06:41;;;;;;;5.07;2.47;;;;;;;13.98;55.80;96673.16;2077918;28;20217;-59
2023/03/21 08:07:42;;;;;;;7.55;2.35;;;;;;;14.18;54.65;96677.25;2076575;28;20701;-59
2023/03/21 08:08:44;;;;;;;6.10;1.60;;;;;;;14.76;53.92;96672.94;2079060;28;20197;-59
2023/03/21 08:09:45;;;;;;;10.05;2.65;;;;;;;14.99;53.64;96657.53;2073687;28;20588;-59
2023/03/21 08:10:47;;;;;;;2.80;1.63;;;;;;;15.30;52.33;96672.25;2078665;28;20797;-59
2023/03/21 08:11:48;;;;;;;5.50;2.13;;;;;;;15.37;52.10;96675.31;2079131;28;20216;-59
2023/03/21 08:12:50;;;;;;;4.82;1.50;;;;;;;15.48;51.42;96672.00;2080064;28;20197;-59
2023/03/21 08:13:52;;;;;;;5.43;1.80;;;;;;;15.61;50.91;96670.28;2075870;28;20613;-59
2023/03/21 08:14:54;;;;;;;5.80;2.17;;;;;;;16.18;50.19;96663.09;2079745;28;20218;-59
2023/03/21 08:15:55;;;;;;;2.75;1.70;;;;;;;16.48;49.21;96659.31;2077383;28;20206;-60
2023/03/21 08:16:57;;;;;;;4.40;1.65;;;;;;;16.27;49.77;96656.38;2079254;28;20548;-60
2023/03/21 08:17:59;;;;;;;6.43;2.10;;;;;;;16.42;49.19;96650.06;2079302;28;20627;-59
2023/03/21 08:19:01;;;;;;;4.32;1.90;;;;;;;16.24;49.32;96661.81;2079191;28;20553;-60
2023/03/21 08:20:07;;;;;;;3.72;2.00;;;;;;;16.98;47.55;96662.91;2077927;28;20219;-60
2023/03/21 08:21:09;;;;;;;6.13;1.60;;;;;;;16.79;48.49;96665.13;2070567;28;20258;-60
2023/03/21 08:22:10;;;;;;;5.13;1.50;;;;;;;16.43;47.94;96657.03;2073944;28;20196;-59
2023/03/21 08:23:12;;;;;;;4.13;1.70;;;;;;;17.42;47.75;96655.44;2070394;28;20202;-60
2023/03/21 08:24:14;;;;;;;4.50;2.03;;;;;;;17.18;47.73;96663.31;2068098;28;20198;-60
2023/03/21 08:25:18;;;;;;;4.47;1.88;;;;;;;17.32;47.96;96658.84;2073513;28;20657;-60
2023/03/21 08:26:23;;;;;;;6.32;1.38;;;;;;;17.30;47.20;96649.22;2071667;28;20245;-60
2023/03/21 08:27:25;;;;;;;11.25;1.90;;;;;;;17.57;46.94;96661.41;2073520;28;20264;-59
2023/03/21 08:28:27;;;;;;;3.85;1.75;;;;;;;17.42;47.08;96658.06;2070375;28;20255;-59
2023/03/21 08:29:28;;;;;;;3.47;1.73;;;;;;;17.34;46.63;96649.84;2069413;28;20229;-60
2023/03/21 08:30:30;;;;;;;2.33;1.50;;;;;;;17.17;46.72;96656.34;2070159;28;20217;-60
2023/03/21 08:31:31;;;;;;;7.95;2.88;;;;;;;17.28;46.74;96650.28;2072227;28;20239;-60
2023/03/21 08:32:33;;;;;;;4.03;1.80;;;;;;;17.06;47.13;96645.72;2071848;28;20211;-59
2023/03/21 08:33:35;;;;;;;3.85;1.85;;;;;;;17.79;45.86;96660.66;2071313;28;20201;-59
2023/03/21 08:34:36;;;;;;;4.60;2.00;;;;;;;17.51;46.00;96638.09;2069520;28;20245;-59
2023/03/21 08:35:38;;;;;;;7.05;1.90;;;;;;;17.08;46.42;96657.84;2070511;28;20293;-59
2023/03/21 08:36:41;;;;;;;4.55;1.77;;;;;;;17.09;46.74;96648.97;2073265;28;20232;-59
2023/03/21 08:37:43;;;;;;;3.03;1.83;;;;;;;17.34;45.90;96641.09;2073742;28;20886;-59
2023/03/21 08:38:46;;;;;;;3.40;1.80;;;;;;;17.16;45.73;96645.91;2072612;28;20527;-60
2023/03/21 08:39:48;;;;;;;5.70;1.92;;;;;;;16.85;46.76;96640.13;2069734;28;20240;-60
2023/03/21 08:40:49;;;;;;;8.43;2.10;;;;;;;16.83;45.86;96628.84;2069470;28;20298;-59
2023/03/21 08:41:51;;;;;;;4.25;2.13;;;;;;;16.93;42.92;96645.75;2071413;28;20200;-59
2023/03/21 08:42:52;;;;;;;8.18;1.75;;;;;;;16.95;43.80;96639.41;2077874;28;20667;-60
2023/03/21 08:43:53;;;;;;;5.75;2.08;;;;;;;17.12;44.59;96640.00;2076976;28;20230;-59
2023/03/21 08:44:55;;;;;;;4.18;1.80;;;;;;;16.75;44.95;96646.03;2073674;28;20686;-59
2023/03/21 08:45:56;;;;;;;3.97;1.92;;;;;;;16.15;44.86;96642.22;2073132;28;20668;-59
2023/03/21 08:46:58;;;;;;;4.32;1.80;;;;;;;16.09;45.38;96643.47;2070871;28;20281;-59
2023/03/21 08:48:00;;;;;;;5.32;2.33;;;;;;;15.72;45.89;96627.47;2072640;28;20206;-60
2023/03/21 08:49:02;;;;;;;3.50;1.48;;;;;;;15.73;45.06;96639.69;2072525;28;20206;-59
2023/03/21 08:50:05;;;;;;;9.07;2.45;;;;;;;15.56;44.36;96640.78;2070394;28;20258;-59
2023/03/21 08:51:07;;;;;;;3.30;1.40;;;;;;;15.41;45.76;96641.78;2069256;28;20202;-59
2023/03/21 08:52:08;;;;;;;7.50;2.20;;;;;;;15.71;46.13;96644.19;2073279;28;20709;-59
2023/03/21 08:53:10;;;;;;;4.75;1.55;;;;;;;15.58;47.35;96631.00;2074342;28;20202;-59
2023/03/21 08:54:21;;;;;;;4.38;1.20;;;;;;;15.67;47.58;96643.56;2071165;28;20664;-59
2023/03/21 08:55:22;;;;;;;4.90;1.67;;;;;;;15.79;47.60;96633.16;2069513;28;20702;-59
2023/03/21 08:56:24;;;;;;;4.53;1.60;;;;;;;15.44;47.98;96636.28;2069653;28;20557;-59
2023/03/21 08:57:25;;;;;;;4.53;1.88;;;;;;;14.84;48.83;96639.16;2072767;28;20255;-59
2023/03/21 08:58:27;;;;;;;4.90;1.85;;;;;;;15.01;49.31;96647.78;2072473;28;20202;-59
2023/03/21 08:59:28;;;;;;;3.78;2.10;;;;;;;15.17;49.34;96643.25;2072411;28;20224;-59
2023/03/21 09:00:30;;;;;;;3.30;1.42;;;;;;;15.28;48.47;96646.97;2070599;28;20227;-59
2023/03/21 09:01:32;;;;;;;8.48;4.80;;;;;;;14.86;48.74;96641.69;2070667;28;20546;-60
2023/03/21 09:02:33;;;;;;;19.30;9.98;;;;;;;14.78;49.04;96638.66;2073924;28;20206;-60
2023/03/21 09:03:35;;;;;;;18.10;9.27;;;;;;;14.97;48.75;96639.22;2072197;28;20206;-60
2023/03/21 09:04:36;;;;;;;6.65;3.60;;;;;;;15.05;48.26;96640.56;2073023;28;20638;-60
2023/03/21 09:05:38;;;;;;;6.38;2.90;;;;;;;14.60;48.35;96641.47;2075877;28;20641;-61
2023/03/21 09:06:44;;;;;;;6.72;2.33;;;;;;;14.50;48.97;96635.94;2073472;28;20207;-61
2023/03/21 09:07:46;;;;;;;7.40;1.92;;;;;;;15.14;48.49;96634.69;2070442;28;20195;-60
2023/03/21 09:08:51;;;;;;;7.85;2.33;;;;;;;14.84;48.32;96633.91;2070100;28;20237;-59
2023/03/21 09:09:53;;;;;;;11.77;7.15;;;;;;;14.99;47.56;96625.97;2072796;28;20600;-61
2023/03/21 09:11:14;;;;;;;10.85;4.65;;;;;;;14.84;48.27;96633.91;2070283;28;20698;-60
2023/03/21 09:12:15;;;;;;;23.83;10.68;;;;;;;15.18;48.59;96630.94;2073925;28;20267;-60
2023/03/21 09:13:17;;;;;;;11.35;5.35;;;;;;;15.39;47.58;96633.97;2069697;28;20696;-61
2023/03/21 09:14:18;;;;;;;6.80;3.05;;;;;;;15.54;47.93;96629.53;2071286;28;20226;-60
2023/03/21 09:15:27;;;;;;;3.25;1.60;;;;;;;15.41;47.70;96624.19;2070759;28;20351;-60
2023/03/21 09:16:29;;;;;;;4.63;2.20;;;;;;;15.63;47.84;96630.69;2071374;28;20554;-60
2023/03/21 09:17:31;;;;;;;6.47;2.13;;;;;;;15.79;48.08;96631.38;2071218;28;20219;-60
2023/03/21 09:18:47;;;;;;;5.60;1.88;;;;;;;15.47;47.54;96629.06;2072245;28;20326;-60
2023/03/21 09:19:55;;;;;;;3.20;1.98;;;;;;;15.26;48.71;96636.56;2071554;28;20327;-59
2023/03/21 09:20:59;;;;;;;5.78;1.60;;;;;;;15.21;48.13;96635.16;2074898;28;20237;-59
2023/03/21 09:22:02;;;;;;;4.88;1.70;;;;;;;15.35;48.18;96633.31;2072836;28;20601;-60
2023/03/21 09:23:04;;;;;;;3.97;1.67;;;;;;;14.98;48.30;96629.53;2072048;28;20284;-60
2023/03/21 09:24:06;;;;;;;8.40;2.10;;;;;;;14.46;49.27;96602.03;2069007;28;20210;-60
2023/03/21 09:25:10;;;;;;;6.57;1.80;;;;;;;14.62;49.90;96629.06;2072679;28;20224;-60
2023/03/21 09:26:12;;;;;;;3.67;1.50;;;;;;;14.62;49.59;96636.13;2070715;28;20557;-60
2023/03/21 09:27:16;;;;;;;3.80;1.58;;;;;;;14.52;50.08;96638.47;2070191;28;20214;-60
2023/03/21 09:28:18;;;;;;;2.83;1.60;;;;;;;14.53;49.69;96637.53;2071614;28;20230;-60
2023/03/21 09:29:22;;;;;;;3.40;1.65;;;;;;;14.84;49.71;96638.28;2070893;28;20288;-61
2023/03/21 09:30:24;;;;;;;4.43;1.40;;;;;;;14.70;49.61;96633.88;2071287;28;20289;-60
2023/03/21 09:31:27;;;;;;;4.72;1.40;;;;;;;15.01;48.77;96629.38;2069061;28;20213;-60
2023/03/21 09:32:29;;;;;;;4.25;1.30;;;;;;;15.02;49.05;96626.63;2072217;28;20344;-60
2023/03/21 09:33:31;;;;;;;3.13;1.50;;;;;;;14.78;49.01;96630.78;2075334;28;20199;-60
2023/03/21 09:34:33;;;;;;;5.70;1.63;;;;;;;14.48;49.29;96637.78;2073935;28;20776;-60
2023/03/21 09:35:34;;;;;;;2.78;1.65;;;;;;;14.37;49.67;96638.47;2073143;28;20201;-60
2023/03/21 09:36:37;;;;;;;5.13;1.60;;;;;;;14.71;48.97;96625.06;2072944;28;20652;-60
2023/03/21 09:37:41;;;;;;;5.15;1.90;;;;;;;14.68;48.63;96623.47;2072000;28;20881;-60
2023/03/21 09:38:44;;;;;;;3.75;1.50;;;;;;;14.92;48.26;96636.06;2069846;28;20242;-60
2023/03/21 09:39:46;;;;;;;4.07;1.25;;;;;;;15.31;48.04;96625.72;2069237;28;20229;-60
2023/03/21 09:41:03;;;;;;;3.85;1.40;;;;;;;16.27;46.23;96635.28;2073882;28;20864;-60
2023/03/21 09:42:14;;;;;;;2.13;1.25;;;;;;;16.38;46.01;96637.19;2073019;28;20297;-60
2023/03/21 09:43:46;;;;;;;2.97;1.60;;;;;;;16.49;45.58;96635.53;2069294;28;20283;-60
2023/03/21 09:45:09;;;;;;;7.28;1.30;;;;;;;17.20;44.41;96634.19;2073533;28;20226;-61
2023/03/21 09:46:35;;;;;;;6.78;1.20;;;;;;;16.57;45.43;96626.22;2076045;28;20256;-61
2023/03/21 09:47:48;;;;;;;3.40;1.45;;;;;;;16.54;46.47;96637.81;2072550;28;20252;-62
2023/03/21 09:48:56;;;;;;;2.60;1.38;;;;;;;16.60;46.36;96633.94;2072185;28;20226;-61
2023/03/21 09:50:03;;;;;;;2.22;1.38;;;;;;;16.27;46.54;96622.94;2069293;28;20322;-61
2023/03/21 09:51:17;;;;;;;3.97;1.55;;;;;;;16.25;47.07;96624.88;2070590;28;20684;-61
2023/03/21 09:52:23;;;;;;;3.60;1.58;;;;;;;15.84;47.35;96623.22;2072407;28;20490;-61
2023/03/21 09:53:31;;;;;;;3.50;1.38;;;;;;;15.42;48.43;96636.41;2071206;28;20206;-61
2023/03/21 09:54:41;;;;;;;4.10;1.33;;;;;;;15.22;48.63;96629.78;2070992;28;20225;-62
2023/03/21 09:55:43;;;;;;;2.75;1.40;;;;;;;15.08;48.60;96624.56;2070255;28;20713;-61
2023/03/21 09:56:46;;;;;;;6.35;2.00;;;;;;;15.47;48.70;96626.41;2068740;28;20202;-61
2023/03/21 09:57:56;;;;;;;2.40;1.50;;;;;;;15.55;48.29;96625.09;2071365;28;20215;-62
2023/03/21 09:59:00;;;;;;;2.30;1.48;;;;;;;15.83;48.57;96622.38;2070779;28;20249;-61
2023/03/21 10:00:15;;;;;;;6.10;1.55;;;;;;;15.87;48.43;96625.66;2073059;28;20237;-61
2023/03/21 10:01:26;;;;;;;2.67;1.70;;;;;;;15.45;48.56;96603.78;2074665;28;20198;-62
2023/03/21 10:02:40;;;;;;;3.40;1.55;;;;;;;15.35;48.83;96617.53;2070675;28;20194;-61
2023/03/21 10:03:42;;;;;;;5.15;2.08;;;;;;;15.32;49.20;96619.53;2071966;28;20209;-61
2023/03/21 10:04:45;;;;;;;3.80;1.80;;;;;;;15.19;48.83;96622.94;2071642;28;20246;-61
2023/03/21 10:05:47;;;;;;;2.88;1.52;;;;;;;15.18;49.35;96607.25;2071065;28;20260;-61
2023/03/21 10:07:01;;;;;;;7.55;1.90;;;;;;;14.99;49.91;96618.94;2072269;28;20198;-61
2023/03/21 10:08:12;;;;;;;3.40;1.65;;;;;;;15.39;49.45;96615.56;2070484;28;20195;-61
2023/03/21 10:09:21;;;;;;;5.13;1.60;;;;;;;15.40;49.38;96606.75;2070294;28;20250;-62
2023/03/21 10:10:31;;;;;;;6.18;1.77;;;;;;;15.47;49.29;96607.16;2071118;28;20238;-61
2023/03/21 10:11:49;;;;;;;2.97;1.90;;;;;;;15.51;48.97;96608.66;2072044;28;20199;-61
2023/03/21 10:12:53;;;;;;;4.28;2.10;;;;;;;15.48;49.26;96608.88;2075288;28;20209;-61
2023/03/21 10:14:28;;;;;;;3.63;1.40;;;;;;;15.42;49.52;96607.47;2075731;28;20258;-61
2023/03/21 10:15:30;;;;;;;5.63;1.95;;;;;;;15.42;50.06;96604.00;2063302;28;20314;-62
2023/03/21 10:16:52;;;;;;;3.00;1.40;;;;;;;15.19;50.29;96615.03;2060457;28;20249;-61
2023/03/21 10:18:20;;;;;;;2.90;1.70;;;;;;;14.82;50.92;96613.91;2062081;28;20216;-61
2023/03/21 10:19:22;;;;;;;3.70;1.60;;;;;;;14.72;50.99;96602.28;2064501;28;21720;-62
2023/03/21 10:20:34;;;;;;;3.60;1.65;;;;;;;14.87;51.23;96611.84;2071158;28;20194;-62
2023/03/21 10:21:42;;;;;;;6.90;1.80;;;;;;;14.70;51.83;96597.09;2068916;28;20199;-62
2023/03/21 10:23:07;;;;;;;4.95;2.15;;;;;;;14.51;51.85;96602.59;2070906;28;20281;-61
2023/03/21 10:24:15;;;;;;;2.67;1.65;;;;;;;14.42;52.26;96611.91;2071081;28;20217;-61
2023/03/21 10:25:20;;;;;;;5.18;2.30;;;;;;;14.71;50.99;96608.47;2071196;28;20205;-61
2023/03/21 10:26:26;;;;;;;3.03;1.70;;;;;;;15.02;51.35;96608.25;2073343;28;20557;-61
2023/03/21 10:27:28;;;;;;;8.68;1.60;;;;;;;15.38;50.17;96600.72;2073313;28;20202;-61
2023/03/21 10:28:36;;;;;;;4.75;2.25;;;;;;;15.28;49.97;96608.34;2068402;28;20234;-61
2023/03/21 10:29:56;;;;;;;3.97;1.83;;;;;;;15.24;50.21;96608.66;2068873;28;20305;-61
2023/03/21 10:31:06;;;;;;;5.30;2.10;;;;;;;15.30;50.17;96609.09;2069990;28;20194;-62
2023/03/21 10:32:12;;;;;;;16.60;9.60;;;;;;;15.39;49.96;96601.53;2072148;28;20226;-59
2023/03/21 10:33:22;;;;;;;5.80;3.38;;;;;;;15.50;49.80;96605.19;2070395;28;20537;-59
2023/03/21 10:34:31;;;;;;;8.88;5.47;;;;;;;15.14;50.73;96609.22;2069828;28;20271;-59
2023/03/21 10:35:35;;;;;;;5.95;3.55;;;;;;;15.27;49.78;96597.94;2071587;28;20202;-59
2023/03/21 10:36:38;;;;;;;6.30;2.30;;;;;;;15.00;50.92;96601.38;2072415;28;20234;-59
2023/03/21 10:37:39;;;;;;;2.78;1.75;;;;;;;15.48;50.56;96593.06;2071294;28;20306;-59
2023/03/21 10:38:46;;;;;;;3.83;1.98;;;;;;;15.45;50.82;96601.16;2066938;28;20206;-59
2023/03/21 10:39:51;;;;;;;4.03;2.25;;;;;;;15.41;49.97;96597.03;2073114;28;20632;-59
2023/03/21 10:40:53;;;;;;;7.07;2.25;;;;;;;15.64;49.97;96600.78;2073632;28;20206;-59
2023/03/21 10:41:54;;;;;;;6.57;2.10;;;;;;;15.71;50.31;96601.25;2070651;28;20207;-59
2023/03/21 10:43:14;;;;;;;3.50;1.85;;;;;;;15.86;50.09;96604.66;2068168;28;20237;-59
2023/03/21 10:44:17;;;;;;;3.05;1.70;;;;;;;16.01;49.74;96601.03;2066341;28;20194;-59
2023/03/21 10:45:21;;;;;;;8.05;1.75;;;;;;;16.11;49.35;96598.59;2071404;28;21051;-59
2023/03/21 10:46:26;;;;;;;3.00;1.80;;;;;;;15.59;49.60;96592.34;2073581;28;20649;-59
2023/03/21 10:47:33;;;;;;;2.67;1.65;;;;;;;15.32;50.96;96595.84;2073096;28;20246;-59
2023/03/21 10:48:37;;;;;;;2.95;1.88;;;;;;;15.22;51.72;96598.22;2071662;28;20203;-59
2023/03/21 10:49:39;;;;;;;8.13;1.98;;;;;;;15.26;50.96;96567.31;2068163;28;20218;-59
2023/03/21 10:51:01;;;;;;;3.45;1.88;;;;;;;14.89;51.02;96588.06;2067836;28;20285;-59
2023/03/21 10:52:06;;;;;;;3.03;2.05;;;;;;;14.67;52.51;96598.13;2072547;28;20202;-59
2023/03/21 10:53:19;;;;;;;6.35;2.63;;;;;;;14.60;52.33;96602.06;2066321;28;20822;-59
2023/03/21 10:54:27;;;;;;;9.93;2.10;;;;;;;14.32;52.66;96603.75;2070491;28;20197;-58
2023/03/21 10:55:31;;;;;;;4.55;1.95;;;;;;;14.17;52.78;96594.13;2071504;28;20240;-59
2023/03/21 10:56:39;;;;;;;4.00;2.17;;;;;;;14.11;53.09;96603.25;2070567;28;20202;-58
2023/03/21 10:57:41;;;;;;;3.72;2.00;;;;;;;14.18;53.25;96606.34;2071114;28;20221;-59
2023/03/21 10:58:46;;;;;;;3.45;1.90;;;;;;;14.20;53.45;96602.69;2070602;28;20198;-59
2023/03/21 10:59:57;;;;;;;3.95;2.33;;;;;;;14.13;53.53;96609.25;2070838;28;20221;-59
2023/03/21 11:01:06;;;;;;;5.75;1.73;;;;;;;14.33;53.45;96604.56;2069255;28;20710;-59
2023/03/21 11:02:18;;;;;;;6.78;1.98;;;;;;;14.11;52.41;96603.25;2074911;28;20857;-59
2023/03/21 11:03:30;;;;;;;3.75;1.75;;;;;;;14.22;52.21;96597.38;2079182;28;20509;-59
2023/03/21 11:04:32;;;;;;;3.70;1.90;;;;;;;14.11;52.33;96600.63;2076195;28;20248;-59
2023/03/21 11:05:40;;;;;;;5.43;1.88;;;;;;;14.27;52.20;96594.44;2069241;28;20246;-59
2023/03/21 11:06:49;;;;;;;3.08;1.48;;;;;;;14.26;51.90;96600.63;2073156;28;20832;-59
2023/03/21 11:08:03;;;;;;;4.72;1.92;;;;;;;14.03;51.83;96593.19;2071150;28;20221;-59
2023/03/21 11:09:14;;;;;;;3.85;1.33;;;;;;;13.94;51.81;96593.75;2068875;28;20685;-58
2023/03/21 11:10:31;;;;;;;4.40;2.15;;;;;;;13.94;52.39;96596.38;2067214;28;20210;-59
2023/03/21 11:11:47;;;;;;;3.92;1.65;;;;;;;13.84;52.49;96590.81;2070952;28;20213;-59
2023/03/21 11:12:49;;;;;;;2.40;1.30;;;;;;;14.05;52.50;96598.34;2073138;28;20222;-58
2023/03/21 11:13:57;;;;;;;8.43;1.98;;;;;;;14.01;53.17;96592.44;2070807;28;20209;-59
2023/03/21 11:15:26;;;;;;;4.47;1.60;;;;;;;14.04;52.63;96588.78;2068366;28;20215;-59
2023/03/21 11:16:34;;;;;;;3.90;1.70;;;;;;;13.77;52.74;96588.66;2070529;28;20716;-58
2023/03/21 11:17:35;;;;;;;3.92;2.05;;;;;;;13.84;53.12;96587.31;2072967;28;20198;-58
2023/03/21 11:18:44;;;;;;;3.10;1.70;;;;;;;13.73;52.78;96592.38;2071076;28;20198;-59
2023/03/21 11:20:00;;;;;;;6.03;2.33;;;;;;;13.61;53.08;96586.91;2068601;28;20240;-58
2023/03/21 11:21:07;;;;;;;5.97;2.78;;;;;;;13.67;53.25;96583.06;2068899;28;20235;-58
2023/03/21 11:22:10;;;;;;;3.30;1.83;;;;;;;13.71;52.80;96589.84;2070205;28;20206;-58
2023/03/21 11:23:12;;;;;;;3.30;1.55;;;;;;;13.75;52.56;96582.63;2068948;28;20682;-58
2023/03/21 11:24:17;;;;;;;4.05;1.45;;;;;;;13.76;52.23;96581.69;2070841;28;20600;-58
2023/03/21 11:25:24;;;;;;;4.40;1.70;;;;;;;13.79;52.37;96578.88;2069198;28;20195;-59
2023/03/21 11:26:36;;;;;;;7.55;2.20;;;;;;;13.77;53.67;96580.78;2070680;28;20561;-59
2023/03/21 11:27:48;;;;;;;4.28;1.75;;;;;;;13.74;52.97;96581.78;2071488;28;20660;-59
2023/03/21 11:28:53;;;;;;;4.45;2.00;;;;;;;13.82;53.25;96579.56;2070741;28;20252;-59
2023/03/21 11:29:56;;;;;;;3.20;1.80;;;;;;;13.64;53.86;96584.09;2073041;28;20218;-58
2023/03/21 11:31:01;;;;;;;6.18;1.92;;;;;;;13.58;53.81;96578.38;2072676;28;20213;-59
2023/03/21 11:32:21;;;;;;;5.90;2.85;;;;;;;13.64;53.62;96583.28;2068302;28;20573;-59
2023/03/21 11:33:34;;;;;;;4.88;2.47;;;;;;;13.59;54.18;96586.16;2070367;28;20588;-58
2023/03/21 11:34:52;;;;;;;3.55;1.90;;;;;;;13.58;53.78;96581.00;2071507;28;20222;-58
2023/03/21 11:36:02;;;;;;;12.65;2.22;;;;;;;13.64;53.39;96578.03;2071047;28;20208;-58
2023/03/21 11:37:03;;;;;;;4.60;2.35;;;;;;;13.71;53.59;96577.56;2070922;28;20613;-59
2023/03/21 11:38:22;;;;;;;5.90;1.77;;;;;;;13.71;53.83;96574.94;2071449;28;20284;-59
2023/03/21 11:39:40;;;;;;;3.80;1.75;;;;;;;13.81;53.19;96574.41;2072174;28;20252;-59
2023/03/21 11:40:51;;;;;;;3.40;1.63;;;;;;;13.67;53.16;96577.81;2072719;28;20213;-59
2023/03/21 11:41:53;;;;;;;3.05;1.70;;;;;;;13.81;52.91;96569.97;2070135;28;20654;-59
2023/03/21 11:42:56;;;;;;;3.42;1.80;;;;;;;13.66;53.27;96566.50;2069397;28;20193;-59
2023/03/21 11:43:59;;;;;;;3.30;1.70;;;;;;;13.70;53.54;96572.41;2071101;28;20214;-58
2023/03/21 11:45:12;;;;;;;3.25;1.80;;;;;;;13.73;53.28;96555.66;2067791;28;20214;-59
2023/03/21 11:46:14;;;;;;;6.20;1.77;;;;;;;13.71;52.38;96563.59;2070664;28;20399;-58
2023/03/21 11:47:15;;;;;;;7.55;2.08;;;;;;;13.82;52.83;96565.59;2074003;28;20260;-59
2023/03/21 11:48:17;;;;;;;5.85;1.92;;;;;;;13.60;53.29;96566.84;2070085;28;20202;-59
2023/03/21 11:49:20;;;;;;;5.20;1.67;;;;;;;13.88;53.11;96560.81;2070485;28;20339;-59
2023/03/21 11:50:36;;;;;;;3.22;1.60;;;;;;;13.81;52.17;96551.63;2068812;28;20202;-59
2023/03/21 11:52:12;;;;;;;5.53;1.90;;;;;;;14.07;51.76;96553.63;2070888;28;20202;-59
2023/03/21 11:53:40;;;;;;;2.83;1.10;;;;;;;13.86;51.57;96554.84;2070682;28;20236;-59
2023/03/21 11:55:05;;;;;;;4.50;1.35;;;;;;;13.75;50.86;96554.63;2069607;28;20739;-59
2023/03/21 11:56:22;;;;;;;2.60;1.23;;;;;;;13.83;51.36;96552.38;2071546;28;20202;-59
2023/03/21 11:57:48;;;;;;;2.35;1.20;;;;;;;13.82;51.57;96555.94;2071142;28;20260;-59
2023/03/21 11:59:10;;;;;;;2.60;1.05;;;;;;;13.98;51.60;96555.00;2073370;28;20205;-59
2023/03/21 12:00:24;;;;;;;1.60;1.00;;;;;;;14.06;51.49;96542.28;2071161;28;20284;-58
2023/03/21 12:01:37;;;;;;;3.63;1.55;;;;;;;14.30;51.37;96552.25;2073115;28;20201;-59
2023/03/21 12:03:12;;;;;;;1.85;1.20;;;;;;;14.13;51.06;96546.25;2072641;28;20230;-59
2023/03/21 12:04:35;;;;;;;3.90;1.30;;;;;;;14.09;51.48;96552.59;2070898;28;20545;-59
2023/03/21 12:05:44;;;;;;;4.63;1.58;;;;;;;14.09;50.92;96549.97;2072634;28;20255;-59
2023/03/21 12:06:57;;;;;;;1.92;1.13;;;;;;;14.26;51.16;96546.34;2073330;28;20205;-58
2023/03/21 12:08:01;;;;;;;2.78;1.23;;;;;;;14.58;50.90;96540.88;2071567;28;20628;-59
2023/03/21 12:09:05;;;;;;;2.70;1.50;;;;;;;14.72;50.73;96539.22;2071749;28;20257;-59
2023/03/21 12:10:32;;;;;;;2.80;1.55;;;;;;;14.82;49.95;96535.06;2070648;28;20194;-58
2023/03/21 12:11:49;;;;;;;3.30;1.20;;;;;;;14.75;50.44;96531.13;2072917;28;20593;-59
2023/03/21 12:12:53;;;;;;;3.03;1.30;;;;;;;14.85;50.17;96533.06;2073266;28;20419;-59
2023/03/21 12:14:00;;;;;;;2.95;1.35;;;;;;;15.10;50.21;96536.75;2071332;28;20399;-59
2023/03/21 12:15:16;;;;;;;1.73;1.00;;;;;;;15.37;49.35;96533.25;2067811;28;20253;-59
2023/03/21 12:16:36;;;;;;;7.60;1.80;;;;;;;15.83;49.13;96527.59;2073091;28;20201;-59
2023/03/21 12:17:48;;;;;;;3.13;1.40;;;;;;;15.87;48.62;96522.09;2073342;28;20932;-59
2023/03/21 12:18:58;;;;;;;2.30;1.52;;;;;;;15.95;48.76;96510.09;2073113;28;20205;-59
2023/03/21 12:20:17;;;;;;;2.67;1.33;;;;;;;15.80;48.75;96511.13;2072949;28;20221;-59
2023/03/21 12:21:41;;;;;;;3.05;1.20;;;;;;;15.35;49.40;96519.38;2070288;28;20215;-58
2023/03/21 12:23:00;;;;;;;3.90;1.45;;;;;;;15.79;49.79;96514.69;2073611;28;20198;-59